createdAt,value
2024-01-30T00:02:27.965Z,0.80
2024-01-30T00:05:30.169Z,0.95
2024-01-30T00:08:32.457Z,0.87
2024-01-30T00:11:34.751Z,0.71
2024-01-30T00:14:37.020Z,0.89
2024-01-30T00:17:39.322Z,0.90
2024-01-30T00:20:42.111Z,0.85
2024-01-30T00:23:44.419Z,0.79
2024-01-30T00:26:46.593Z,0.66
2024-01-30T00:29:49.064Z,0.79
2024-01-30T00:32:51.333Z,0.81
2024-01-30T00:35:53.596Z,0.88
2024-01-30T00:38:55.742Z,0.81
2024-01-30T00:41:58.012Z,0.82
2024-01-30T00:45:00.267Z,0.77
2024-01-30T00:48:02.566Z,0.68
2024-01-30T00:51:04.898Z,0.62
2024-01-30T00:54:07.680Z,0.29
2024-01-30T00:57:10.302Z,0.21
2024-01-30T01:00:13.727Z,0.31
2024-01-30T01:03:16.105Z,0.54
2024-01-30T01:06:18.486Z,0.49
2024-01-30T01:09:20.761Z,0.44
2024-01-30T01:12:22.949Z,0.29
2024-01-30T01:15:27.083Z,0.18
2024-01-30T01:18:30.035Z,0.24
2024-01-30T01:21:32.238Z,0.38
2024-01-30T01:24:35.232Z,0.47
2024-01-30T01:27:41.914Z,0.69
2024-01-30T01:30:44.488Z,0.69
2024-01-30T01:33:46.931Z,0.67
2024-01-30T01:36:49.367Z,0.50
2024-01-30T01:39:51.624Z,0.47
2024-01-30T01:42:55.022Z,0.51
2024-01-30T01:45:57.465Z,0.43
2024-01-30T01:48:59.863Z,0.53
2024-01-30T01:52:02.222Z,0.54
2024-01-30T01:55:04.730Z,0.46
2024-01-30T01:58:07.097Z,0.39
2024-01-30T02:01:09.452Z,0.37
2024-01-30T02:04:11.744Z,0.25
2024-01-30T02:07:14.380Z,0.09
2024-01-30T02:10:16.912Z,0.14
2024-01-30T02:13:19.365Z,-0.02
2024-01-30T02:16:21.884Z,-0.22
2024-01-30T02:19:24.123Z,-0.24
2024-01-30T02:22:26.562Z,-0.27
2024-01-30T02:25:36.905Z,-0.18
2024-01-30T02:28:39.561Z,0.00
2024-01-30T02:31:42.301Z,-0.01
2024-01-30T02:34:44.574Z,0.02
2024-01-30T02:37:46.868Z,-0.03
2024-01-30T02:40:48.993Z,-0.03
2024-01-30T02:43:51.240Z,-0.07
2024-01-30T02:46:55.379Z,-0.03
2024-01-30T02:49:57.803Z,-0.02
2024-01-30T02:53:00.100Z,-0.02
2024-01-30T02:56:03.771Z,-0.12
2024-01-30T02:59:05.986Z,-0.21
2024-01-30T03:02:08.235Z,-0.29
2024-01-30T03:05:10.386Z,-0.21
2024-01-30T03:08:12.630Z,-0.18
2024-01-30T03:11:14.924Z,-0.13
2024-01-30T03:14:17.575Z,-0.15
2024-01-30T03:17:19.963Z,-0.05
2024-01-30T03:20:22.216Z,-0.05
2024-01-30T03:23:24.406Z,-0.08
2024-01-30T03:26:26.574Z,-0.16
2024-01-30T03:29:28.783Z,-0.20
2024-01-30T03:32:30.973Z,-0.12
2024-01-30T03:35:33.130Z,-0.26
2024-01-30T03:38:35.700Z,-0.27
2024-01-30T03:41:37.936Z,-0.42
2024-01-30T03:44:40.110Z,-0.38
2024-01-30T03:47:44.928Z,-0.64
2024-01-30T03:50:47.126Z,-0.51
2024-01-30T03:53:49.277Z,-0.41
2024-01-30T03:56:51.557Z,-0.37
2024-01-30T03:59:54.444Z,-0.26
2024-01-30T04:02:56.899Z,-0.18
2024-01-30T04:05:59.504Z,-0.16
2024-01-30T04:09:01.782Z,-0.07
2024-01-30T04:12:04.867Z,-0.22
2024-01-30T04:15:07.204Z,-0.24
2024-01-30T04:18:09.439Z,-0.43
2024-01-30T04:21:11.679Z,-0.50
2024-01-30T04:24:13.951Z,-0.51
2024-01-30T04:27:16.157Z,-0.62
2024-01-30T04:30:18.453Z,-0.75
2024-01-30T04:33:20.591Z,-0.65
2024-01-30T04:36:22.818Z,-0.54
2024-01-30T04:39:24.961Z,-0.45
2024-01-30T04:42:27.250Z,-0.45
2024-01-30T04:45:29.445Z,-0.44
2024-01-30T04:48:31.703Z,-0.48
2024-01-30T04:51:34.117Z,-0.50
2024-01-30T04:54:36.812Z,-0.40
2024-01-30T04:57:39.277Z,-0.34
2024-01-30T05:00:41.648Z,-0.38
2024-01-30T05:03:44.397Z,-0.43
2024-01-30T05:06:46.852Z,-0.46
2024-01-30T05:09:49.075Z,-0.43
2024-01-30T05:12:51.406Z,-0.45
2024-01-30T05:15:53.637Z,-0.45
2024-01-30T05:18:55.883Z,-0.50
2024-01-30T05:21:58.074Z,-0.60
2024-01-30T05:25:00.340Z,-0.68
2024-01-30T05:28:02.552Z,-0.81
2024-01-30T05:31:04.927Z,-0.72
2024-01-30T05:34:08.000Z,-0.67
2024-01-30T05:37:10.407Z,-0.63
2024-01-30T05:40:12.776Z,-0.57
2024-01-30T05:43:15.139Z,-0.53
2024-01-30T05:46:17.463Z,-0.64
2024-01-30T05:49:19.779Z,-0.70
2024-01-30T05:52:22.174Z,-0.63
2024-01-30T05:55:24.489Z,-0.73
2024-01-30T05:58:26.686Z,-0.94
2024-01-30T06:01:30.566Z,-1.03
2024-01-30T06:04:33.051Z,-0.93
2024-01-30T06:07:37.065Z,-0.89
2024-01-30T06:10:40.262Z,-1.00
2024-01-30T06:13:42.481Z,-0.89
2024-01-30T06:16:44.633Z,-0.82
2024-01-30T06:19:46.859Z,-0.68
2024-01-30T06:22:49.037Z,-0.66
2024-01-30T06:25:51.239Z,-0.63
2024-01-30T06:28:53.489Z,-0.65
2024-01-30T06:31:55.844Z,-0.55
2024-01-30T06:34:58.160Z,-0.42
2024-01-30T06:38:00.496Z,-0.64
2024-01-30T06:41:02.744Z,-0.45
2024-01-30T06:44:09.424Z,-0.38
2024-01-30T06:47:12.035Z,-0.06
2024-01-30T06:50:14.358Z,0.23
2024-01-30T06:53:16.610Z,0.65
2024-01-30T06:56:22.057Z,1.15
2024-01-30T06:59:24.897Z,1.50
2024-01-30T07:02:27.121Z,1.72
2024-01-30T07:05:29.266Z,1.96
2024-01-30T07:08:31.476Z,2.41
2024-01-30T07:11:33.748Z,2.74
2024-01-30T07:14:36.508Z,2.95
2024-01-30T07:17:38.909Z,3.22
2024-01-30T07:20:47.384Z,3.44
2024-01-30T07:23:49.759Z,3.01
2024-01-30T07:26:52.042Z,3.48
2024-01-30T07:29:54.915Z,3.11
2024-01-30T07:32:57.222Z,3.57
2024-01-30T07:35:59.403Z,4.26
2024-01-30T07:39:01.709Z,4.59
2024-01-30T07:42:07.224Z,5.13
2024-01-30T07:45:10.655Z,5.45
2024-01-30T07:48:12.945Z,5.82
2024-01-30T07:51:15.254Z,5.84
2024-01-30T07:54:17.538Z,6.39
2024-01-30T07:57:19.668Z,6.80
2024-01-30T08:00:22.731Z,7.05
2024-01-30T08:03:25.446Z,7.64
2024-01-30T08:06:27.722Z,8.20
2024-01-30T08:09:29.909Z,8.87
2024-01-30T08:12:32.102Z,9.53
2024-01-30T08:15:34.684Z,9.62
2024-01-30T08:18:37.316Z,9.19
2024-01-30T08:21:40.231Z,8.41
2024-01-30T08:24:42.617Z,7.93
2024-01-30T08:27:45.652Z,7.09
2024-01-30T08:30:49.018Z,7.39
2024-01-30T08:33:51.392Z,7.41
2024-01-30T08:36:53.656Z,7.25
2024-01-30T08:39:56.129Z,6.87
2024-01-30T08:42:58.358Z,6.78
2024-01-30T08:46:01.992Z,7.49
2024-01-30T08:49:06.040Z,7.79
2024-01-30T08:52:08.432Z,7.04
2024-01-30T08:55:10.797Z,6.34
2024-01-30T08:58:13.241Z,6.06
2024-01-30T09:01:15.977Z,6.13
2024-01-30T09:04:18.219Z,7.24
2024-01-30T09:07:20.615Z,8.01
2024-01-30T09:10:23.232Z,9.68
2024-01-30T09:13:25.685Z,11.44
2024-01-30T09:16:28.060Z,12.12
2024-01-30T09:19:31.678Z,12.27
2024-01-30T09:22:34.211Z,11.83
2024-01-30T09:25:36.605Z,12.29
2024-01-30T09:28:38.809Z,12.14
2024-01-30T09:31:44.725Z,12.15
2024-01-30T09:34:47.196Z,11.98
2024-01-30T09:37:49.488Z,12.39
2024-01-30T09:40:56.007Z,12.49
2024-01-30T09:43:58.705Z,12.72
2024-01-30T09:47:04.677Z,13.15
2024-01-30T09:50:07.887Z,12.83
2024-01-30T09:53:10.448Z,12.41
2024-01-30T09:56:13.766Z,12.19
2024-01-30T09:59:16.451Z,11.34
2024-01-30T10:02:20.228Z,11.06
2024-01-30T10:05:27.958Z,10.39
2024-01-30T10:08:31.085Z,9.24
2024-01-30T10:11:33.435Z,8.74
2024-01-30T10:14:39.224Z,8.53
2024-01-30T10:17:41.828Z,8.44
2024-01-30T10:20:44.113Z,8.15
2024-01-30T10:23:46.316Z,7.83
2024-01-30T10:26:48.547Z,7.48
2024-01-30T10:29:50.733Z,7.43
2024-01-30T10:32:53.125Z,7.37
2024-01-30T10:36:03.405Z,7.22
2024-01-30T10:39:07.678Z,6.92
2024-01-30T10:42:14.688Z,7.14
2024-01-30T10:45:17.103Z,6.73
2024-01-30T10:48:23.381Z,6.69
2024-01-30T10:51:27.979Z,6.58
2024-01-30T10:54:30.182Z,6.59
2024-01-30T10:57:37.870Z,6.72
2024-01-30T11:00:40.444Z,6.51
2024-01-30T11:03:42.977Z,6.85
2024-01-30T11:06:45.615Z,6.75
2024-01-30T11:09:54.944Z,6.69
2024-01-30T11:12:57.279Z,6.57
2024-01-30T11:16:06.474Z,6.47
2024-01-30T11:19:12.224Z,6.39
2024-01-30T11:22:14.717Z,6.14
2024-01-30T11:25:18.456Z,6.17
2024-01-30T11:28:23.164Z,6.13
2024-01-30T11:31:25.521Z,6.07
2024-01-30T11:34:30.680Z,6.08
2024-01-30T11:37:33.070Z,6.06
2024-01-30T11:40:37.598Z,5.97
2024-01-30T11:43:40.067Z,5.73
2024-01-30T11:46:42.616Z,5.77
2024-01-30T11:49:45.233Z,5.50
2024-01-30T11:52:47.857Z,5.42
2024-01-30T11:55:53.862Z,5.50
2024-01-30T11:58:56.300Z,5.60
2024-01-30T12:01:58.568Z,5.56
2024-01-30T12:05:06.142Z,5.59
2024-01-30T12:08:08.545Z,5.47
2024-01-30T12:11:11.540Z,5.37
2024-01-30T12:14:14.299Z,5.29
2024-01-30T12:17:30.181Z,5.27
2024-01-30T12:20:32.350Z,5.33
2024-01-30T12:23:34.552Z,5.13
2024-01-30T12:26:36.854Z,5.14
2024-01-30T12:29:43.249Z,5.10
2024-01-30T12:32:47.446Z,5.13
2024-01-30T12:35:58.377Z,5.23
2024-01-30T12:39:05.574Z,5.34
2024-01-30T12:42:08.589Z,5.48
2024-01-30T12:45:11.292Z,5.45
2024-01-30T12:48:13.845Z,5.44
2024-01-30T12:51:16.094Z,5.34
2024-01-30T12:54:18.769Z,5.44
2024-01-30T12:57:21.216Z,5.33
2024-01-30T13:00:23.745Z,5.36
2024-01-30T13:03:26.019Z,5.32
2024-01-30T13:06:28.278Z,5.34
2024-01-30T13:09:33.832Z,5.32
2024-01-30T13:12:36.623Z,5.21
2024-01-30T13:15:39.478Z,5.12
2024-01-30T13:18:42.451Z,5.22
2024-01-30T13:21:44.864Z,5.22
2024-01-30T13:24:47.061Z,5.25
2024-01-30T13:27:49.439Z,5.25
2024-01-30T13:30:51.693Z,5.31
2024-01-30T13:33:54.808Z,5.32
2024-01-30T13:36:57.727Z,5.36
2024-01-30T13:40:01.317Z,5.43
2024-01-30T13:43:04.840Z,5.39
2024-01-30T13:46:07.196Z,5.40
2024-01-30T13:49:09.494Z,5.36
2024-01-30T13:52:11.715Z,5.41
2024-01-30T13:55:14.402Z,5.33
2024-01-30T13:58:16.852Z,5.33
2024-01-30T14:01:19.393Z,5.31
2024-01-30T14:04:23.050Z,5.38
2024-01-30T14:07:25.528Z,5.43
2024-01-30T14:10:27.895Z,5.36
2024-01-30T14:13:30.357Z,5.48
2024-01-30T14:16:32.628Z,5.42
2024-01-30T14:19:36.473Z,5.47
2024-01-30T14:22:41.742Z,5.44
2024-01-30T14:25:44.044Z,5.41
2024-01-30T14:28:47.406Z,5.59
2024-01-30T14:31:49.480Z,5.61
2024-01-30T14:34:52.195Z,5.55
2024-01-30T14:37:54.616Z,5.50
2024-01-30T14:40:56.814Z,5.55
2024-01-30T14:43:59.027Z,5.54
2024-01-30T14:47:01.768Z,5.55
2024-01-30T14:50:06.620Z,5.57
2024-01-30T14:53:09.672Z,5.59
2024-01-30T14:56:11.950Z,5.60
2024-01-30T14:59:14.475Z,5.62
2024-01-30T15:02:16.855Z,5.69
2024-01-30T15:05:19.180Z,5.69
2024-01-30T15:08:21.865Z,5.62
2024-01-30T15:11:24.179Z,5.62
2024-01-30T15:14:26.426Z,5.60
2024-01-30T15:17:28.669Z,5.61
2024-01-30T15:20:32.526Z,5.63
2024-01-30T15:23:34.774Z,5.55
2024-01-30T15:26:37.003Z,5.47
2024-01-30T15:29:39.392Z,5.42
2024-01-30T15:32:41.861Z,5.45
2024-01-30T15:35:44.146Z,5.32
2024-01-30T15:38:46.591Z,5.31
2024-01-30T15:41:49.422Z,5.28
2024-01-30T15:44:51.657Z,5.21
2024-01-30T15:47:53.845Z,5.20
2024-01-30T15:50:55.993Z,5.23
2024-01-30T15:53:58.237Z,5.15
2024-01-30T15:57:00.628Z,5.10
2024-01-30T16:00:02.968Z,5.16
2024-01-30T16:03:13.721Z,5.09
2024-01-30T16:06:18.173Z,5.04
2024-01-30T16:09:20.443Z,5.11
2024-01-30T16:12:22.609Z,5.08
2024-01-30T16:15:26.405Z,5.04
2024-01-30T16:18:32.063Z,4.97
2024-01-30T16:21:34.282Z,5.02
2024-01-30T16:24:36.510Z,4.98
2024-01-30T16:27:38.731Z,4.86
2024-01-30T16:30:40.846Z,4.76
2024-01-30T16:33:43.075Z,4.78
2024-01-30T16:36:45.316Z,4.73
2024-01-30T16:39:47.679Z,4.71
2024-01-30T16:42:49.904Z,4.73
2024-01-30T16:45:52.245Z,4.71
2024-01-30T16:48:54.520Z,4.68
2024-01-30T16:51:58.619Z,4.67
2024-01-30T16:55:02.148Z,4.64
2024-01-30T16:58:04.757Z,4.54
2024-01-30T17:01:07.052Z,4.54
2024-01-30T17:04:09.455Z,4.39
2024-01-30T17:07:11.891Z,4.43
2024-01-30T17:10:17.584Z,4.51
2024-01-30T17:13:19.834Z,4.40
2024-01-30T17:16:22.553Z,4.38
2024-01-30T17:19:24.995Z,4.35
2024-01-30T17:22:28.108Z,4.21
2024-01-30T17:25:30.608Z,4.19
2024-01-30T17:28:32.954Z,4.01
2024-01-30T17:31:35.237Z,4.05
2024-01-30T17:34:37.506Z,4.00
2024-01-30T17:37:40.325Z,4.08
2024-01-30T17:40:42.586Z,3.92
2024-01-30T17:43:45.120Z,3.89
2024-01-30T17:46:48.462Z,3.82
2024-01-30T17:49:50.769Z,3.79
2024-01-30T17:52:54.944Z,3.79
2024-01-30T17:56:01.673Z,3.84
2024-01-30T17:59:04.118Z,3.74
2024-01-30T18:02:06.596Z,3.62
2024-01-30T18:05:10.813Z,3.69
2024-01-30T18:08:13.154Z,3.82
2024-01-30T18:11:15.372Z,3.62
2024-01-30T18:14:17.586Z,3.54
2024-01-30T18:17:19.752Z,3.43
2024-01-30T18:20:22.003Z,3.47
2024-01-30T18:23:24.325Z,3.55
2024-01-30T18:26:27.280Z,3.45
2024-01-30T18:29:29.596Z,3.23
2024-01-30T18:32:31.847Z,3.33
2024-01-30T18:35:34.871Z,3.23
2024-01-30T18:38:37.089Z,3.16
2024-01-30T18:41:39.401Z,3.09
2024-01-30T18:44:41.660Z,3.01
2024-01-30T18:47:43.900Z,2.90
2024-01-30T18:50:46.271Z,3.03
2024-01-30T18:53:48.927Z,3.01
2024-01-30T18:56:51.184Z,2.96
2024-01-30T18:59:53.517Z,2.94
2024-01-30T19:02:56.712Z,2.91
2024-01-30T19:05:59.174Z,2.79
2024-01-30T19:09:01.482Z,2.85
2024-01-30T19:12:03.796Z,2.88
2024-01-30T19:15:10.490Z,2.95
2024-01-30T19:18:13.994Z,3.08
2024-01-30T19:21:16.313Z,2.99
2024-01-30T19:24:18.513Z,3.08
2024-01-30T19:27:21.121Z,3.01
2024-01-30T19:30:23.416Z,2.97
2024-01-30T19:33:25.631Z,3.03
2024-01-30T19:36:27.810Z,3.00
2024-01-30T19:39:29.948Z,2.89
2024-01-30T19:42:32.235Z,2.87
2024-01-30T19:45:35.105Z,2.78
2024-01-30T19:48:37.813Z,2.77
2024-01-30T19:51:40.003Z,2.84
2024-01-30T19:54:42.194Z,2.84
2024-01-30T19:57:44.458Z,2.82
2024-01-30T20:00:47.789Z,2.98
2024-01-30T20:03:50.129Z,2.96
2024-01-30T20:06:52.400Z,2.94
2024-01-30T20:09:54.752Z,2.93
2024-01-30T20:12:58.087Z,2.93
2024-01-30T20:16:00.494Z,2.80
2024-01-30T20:19:02.832Z,2.73
2024-01-30T20:22:05.232Z,2.58
2024-01-30T20:25:13.731Z,2.66
2024-01-30T20:28:20.833Z,2.62
2024-01-30T20:31:23.233Z,2.49
2024-01-30T20:34:25.708Z,2.38
2024-01-30T20:37:28.451Z,2.11
2024-01-30T20:40:30.733Z,2.01
2024-01-30T20:43:33.050Z,2.07
2024-01-30T20:46:35.386Z,2.07
2024-01-30T20:49:37.835Z,1.96
2024-01-30T20:52:40.186Z,2.00
2024-01-30T20:55:42.604Z,1.96
2024-01-30T20:58:44.818Z,1.95
2024-01-30T21:01:47.164Z,1.92
2024-01-30T21:04:49.612Z,1.84
2024-01-30T21:07:53.929Z,1.80
2024-01-30T21:10:56.307Z,1.85
2024-01-30T21:13:58.662Z,1.80
2024-01-30T21:17:01.872Z,1.71
2024-01-30T21:20:04.877Z,1.63
